Time;durP1;ratioP1;P1;durP2;ratioP2;P2;SDS_P1;SDS_P2;PMS_P1;PMS_P2;Temp;Humidity;BMP_temperature;BMP_pressure;BME280_temperature;BME280_humidity;BME280_pressure;Samples;Min_cycle;Max_cycle;Signal;HPM_P1;HPM_P2
2023/02/15 00:01:16;;;;;;;;;;;3.20;99.90;;;;;;5065420;28;19920;-63
2023/02/15 00:03:42;;;;;;;;;;;3.20;99.90;;;;;;5067476;28;19965;-63
2023/02/15 00:06:07;;;;;;;;;;;3.10;99.90;;;;;;5062746;28;19912;-64
2023/02/15 00:08:33;;;;;;;;;;;3.10;99.90;;;;;;5065256;28;19912;-63
2023/02/15 00:11:08;;;;;;;;;;;3.10;99.90;;;;;;5064996;28;19913;-63
2023/02/15 00:13:35;;;;;;;;;;;3.10;99.90;;;;;;5066818;28;20404;-63
2023/02/15 00:16:02;;;;;;;;;;;3.10;99.90;;;;;;5065417;28;19921;-64
2023/02/15 00:18:27;;;;;;;;;;;3.10;99.90;;;;;;5068773;28;19919;-62
2023/02/15 00:20:53;;;;;;;;;;;3.10;99.90;;;;;;5065252;28;19920;-63
2023/02/15 00:23:18;;;;;;;;;;;3.00;99.90;;;;;;5067905;28;19952;-62
2023/02/15 00:25:44;;;;;;;;;;;3.00;99.90;;;;;;5066169;28;19942;-61
2023/02/15 00:28:09;;;;;;;;;;;2.90;99.90;;;;;;5065104;28;19915;-62
2023/02/15 00:30:34;;;;;;;;;;;2.90;99.90;;;;;;5065897;28;19958;-62
2023/02/15 00:33:00;;;;;;;;;;;2.90;99.90;;;;;;5066210;28;19936;-61
2023/02/15 00:35:25;;;;;;;;;;;2.80;99.90;;;;;;5064926;28;19913;-64
2023/02/15 00:37:52;;;;;;;;;;;2.90;99.90;;;;;;5068403;28;20638;-61
2023/02/15 00:40:17;;;;;;;;;;;2.80;99.90;;;;;;5064796;28;19912;-64
2023/02/15 00:42:43;;;;;;;;;;;2.80;99.90;;;;;;5067120;28;19924;-60
2023/02/15 00:45:08;;;;;;;;;;;2.70;99.90;;;;;;5065209;28;19917;-62
2023/02/15 00:47:34;;;;;;;;;;;2.70;99.90;;;;;;5066111;28;19927;-62
2023/02/15 00:49:59;;;;;;;;;;;2.80;99.90;;;;;;5065950;28;19991;-61
2023/02/15 00:52:25;;;;;;;;;;;2.80;99.90;;;;;;5066871;28;19916;-63
2023/02/15 00:54:50;;;;;;;;;;;2.80;99.90;;;;;;5067187;28;19999;-61
2023/02/15 00:57:16;;;;;;;;;;;2.80;99.90;;;;;;5066817;28;19915;-63
2023/02/15 00:59:41;;;;;;;;;;;2.70;99.90;;;;;;5062625;28;19924;-60
2023/02/15 01:02:07;;;;;;;;;;;2.80;99.90;;;;;;5063932;28;19920;-60
2023/02/15 01:04:32;;;;;;;;;;;2.80;99.90;;;;;;5060721;28;19930;-64
2023/02/15 01:06:57;;;;;;;;;;;2.70;99.90;;;;;;5063424;28;20366;-61
2023/02/15 01:09:23;;;;;;;;;;;2.70;99.90;;;;;;5063124;28;20370;-63
2023/02/15 01:11:48;;;;;;;;;;;2.60;99.90;;;;;;5065055;28;19963;-62
2023/02/15 01:14:14;;;;;;;;;;;2.70;99.90;;;;;;5064952;28;20381;-63
2023/02/15 01:16:39;;;;;;;;;;;2.70;99.90;;;;;;5064268;28;20294;-62
2023/02/15 01:19:06;;;;;;;;;;;2.70;99.90;;;;;;5066006;28;19913;-62
2023/02/15 01:21:34;;;;;;;;;;;2.70;99.90;;;;;;5065299;28;19978;-64
2023/02/15 01:24:00;;;;;;;;;;;2.60;99.90;;;;;;5065753;28;19964;-62
2023/02/15 01:26:25;;;;;;;;;;;2.60;99.90;;;;;;5062173;28;20369;-62
2023/02/15 01:28:51;;;;;;;;;;;2.60;99.90;;;;;;5067025;28;20019;-63
2023/02/15 01:31:17;;;;;;;;;;;2.70;99.90;;;;;;5062226;28;20349;-62
2023/02/15 01:33:43;;;;;;;;;;;2.60;99.90;;;;;;5059002;28;20370;-60
2023/02/15 01:36:09;;;;;;;;;;;2.60;99.90;;;;;;5061115;28;19920;-62
2023/02/15 01:38:35;;;;;;;;;;;2.50;99.90;;;;;;5064756;28;19986;-59
2023/02/15 01:43:49;;;;;;;;;;;2.50;99.90;;;;;;5065861;28;20286;-59
2023/02/15 01:46:15;;;;;;;;;;;2.50;99.90;;;;;;5066442;28;20293;-59
2023/02/15 01:48:44;;;;;;;;;;;2.60;99.90;;;;;;5069390;28;19912;-62
2023/02/15 01:51:10;;;;;;;;;;;2.50;99.90;;;;;;5067562;28;19916;-62
2023/02/15 01:53:42;;;;;;;;;;;2.60;99.90;;;;;;5067246;28;19975;-65
2023/02/15 01:56:10;;;;;;;;;;;2.60;99.90;;;;;;5068328;28;20008;-62
2023/02/15 01:58:36;;;;;;;;;;;2.50;99.90;;;;;;5069285;28;20255;-58
2023/02/15 02:01:04;;;;;;;;;;;2.50;99.90;;;;;;5066780;28;19916;-60
2023/02/15 02:03:48;;;;;;;;;;;2.40;99.90;;;;;;5068856;28;19967;-62
2023/02/15 02:06:13;;;;;;;;;;;2.50;99.90;;;;;;5072312;28;19997;-59
2023/02/15 02:08:39;;;;;;;;;;;2.40;99.90;;;;;;5067357;28;19948;-61
2023/02/15 02:11:11;;;;;;;;;;;2.40;99.90;;;;;;5070615;28;19920;-61
2023/02/15 02:13:37;;;;;;;;;;;2.40;99.90;;;;;;5063660;28;19920;-61
2023/02/15 02:16:14;;;;;;;;;;;2.40;99.90;;;;;;5068365;28;19966;-63
2023/02/15 02:18:46;;;;;;;;;;;2.40;99.90;;;;;;5065410;28;19912;-60
2023/02/15 02:21:26;;;;;;;;;;;2.40;99.90;;;;;;5063967;28;19917;-62
2023/02/15 02:24:10;;;;;;;;;;;2.30;99.90;;;;;;5068329;28;22022;-62
2023/02/15 02:26:37;;;;;;;;;;;2.40;99.90;;;;;;5067477;28;20222;-62
2023/02/15 02:29:21;;;;;;;;;;;2.40;99.90;;;;;;5068371;28;20006;-60
2023/02/15 02:32:19;;;;;;;;;;;2.30;99.90;;;;;;5065622;28;20006;-62
2023/02/15 02:35:00;;;;;;;;;;;2.30;99.90;;;;;;5045287;28;19919;-60
2023/02/15 02:37:44;;;;;;;;;;;2.20;99.90;;;;;;5068033;28;19919;-62
2023/02/15 02:40:15;;;;;;;;;;;2.30;99.90;;;;;;5066464;28;20433;-61
2023/02/15 02:42:47;;;;;;;;;;;2.30;99.90;;;;;;5068793;28;20057;-62
2023/02/15 02:45:19;;;;;;;;;;;2.30;99.90;;;;;;5065688;28;19924;-62
2023/02/15 02:47:47;;;;;;;;;;;2.20;99.90;;;;;;5067990;28;19948;-59
2023/02/15 02:50:14;;;;;;;;;;;2.20;99.90;;;;;;5068702;28;19958;-62
2023/02/15 02:52:43;;;;;;;;;;;2.20;99.90;;;;;;5067741;28;20648;-60
2023/02/15 02:55:08;;;;;;;;;;;2.10;99.90;;;;;;5071226;28;19924;-59
2023/02/15 02:57:34;;;;;;;;;;;2.10;99.90;;;;;;5063698;28;20350;-62
2023/02/15 03:00:02;;;;;;;;;;;2.10;99.90;;;;;;5067530;28;19916;-62
2023/02/15 03:02:30;;;;;;;;;;;2.10;99.90;;;;;;5069247;28;19913;-63
2023/02/15 03:05:03;;;;;;;;;;;2.10;99.90;;;;;;5069776;28;20011;-62
2023/02/15 03:07:30;;;;;;;;;;;2.20;99.90;;;;;;5071026;28;19912;-59
2023/02/15 03:09:57;;;;;;;;;;;2.10;99.90;;;;;;5070307;28;19916;-60
2023/02/15 03:12:25;;;;;;;;;;;2.10;99.90;;;;;;5069167;28;19999;-61
2023/02/15 03:14:52;;;;;;;;;;;2.00;99.90;;;;;;5066252;28;19923;-58
2023/02/15 03:17:19;;;;;;;;;;;2.10;99.90;;;;;;5064680;28;19912;-61
2023/02/15 03:19:47;;;;;;;;;;;2.00;99.90;;;;;;5067451;28;19916;-61
2023/02/15 03:22:22;;;;;;;;;;;2.00;99.90;;;;;;5069419;28;19912;-62
2023/02/15 03:24:48;;;;;;;;;;;2.00;99.90;;;;;;5068390;28;19924;-61
2023/02/15 03:27:17;;;;;;;;;;;2.00;99.90;;;;;;5065840;28;19912;-61
2023/02/15 03:29:43;;;;;;;;;;;2.00;99.90;;;;;;5066391;28;19927;-62
2023/02/15 03:32:10;;;;;;;;;;;2.00;99.90;;;;;;5069423;28;20460;-62
2023/02/15 03:34:36;;;;;;;;;;;2.00;99.90;;;;;;5067575;28;20360;-62
2023/02/15 03:37:19;;;;;;;;;;;2.00;99.90;;;;;;5069557;28;19912;-63
2023/02/15 03:39:49;;;;;;;;;;;2.00;99.90;;;;;;5066573;28;19916;-63
2023/02/15 03:42:20;;;;;;;;;;;1.90;99.90;;;;;;5068932;28;19912;-60
2023/02/15 03:44:49;;;;;;;;;;;2.00;99.90;;;;;;5064112;28;19923;-60
2023/02/15 03:47:17;;;;;;;;;;;2.00;99.90;;;;;;5070738;28;19975;-63
2023/02/15 03:49:45;;;;;;;;;;;2.00;99.90;;;;;;5068188;28;19917;-63
2023/02/15 03:52:11;;;;;;;;;;;1.90;99.90;;;;;;5066609;28;19962;-62
2023/02/15 03:54:43;;;;;;;;;;;1.90;99.90;;;;;;5064813;28;19913;-60
2023/02/15 04:03:12;;;;;;;;;;;1.90;99.90;;;;;;5066499;28;19926;-62
2023/02/15 04:05:37;;;;;;;;;;;1.80;99.90;;;;;;5065168;28;19963;-60
2023/02/15 04:08:03;;;;;;;;;;;1.80;99.90;;;;;;5067032;28;19916;-61
2023/02/15 04:13:13;;;;;;;;;;;1.80;99.90;;;;;;5068371;28;19951;-63
2023/02/15 04:26:35;;;;;;;;;;;1.70;99.90;;;;;;5067861;28;19920;-63
2023/02/15 04:29:00;;;;;;;;;;;1.70;99.90;;;;;;5064971;28;20381;-63
2023/02/15 04:31:26;;;;;;;;;;;1.80;99.90;;;;;;5044912;28;19912;-64
2023/02/15 04:33:51;;;;;;;;;;;1.80;99.90;;;;;;5066005;28;20038;-60
2023/02/15 04:36:17;;;;;;;;;;;1.90;99.90;;;;;;5063216;28;20265;-60
2023/02/15 04:38:42;;;;;;;;;;;1.80;99.90;;;;;;5068329;28;19913;-61
2023/02/15 04:41:08;;;;;;;;;;;1.80;99.90;;;;;;5066063;28;19913;-60
2023/02/15 04:43:34;;;;;;;;;;;1.80;99.90;;;;;;5064415;28;19913;-61
2023/02/15 04:45:59;;;;;;;;;;;1.80;99.90;;;;;;5063514;28;20294;-60
2023/02/15 04:48:24;;;;;;;;;;;1.80;99.90;;;;;;5065241;28;19935;-62
2023/02/15 04:50:50;;;;;;;;;;;1.80;99.90;;;;;;5063902;28;20003;-61
2023/02/15 04:53:17;;;;;;;;;;;1.70;99.90;;;;;;5067867;28;19913;-62
2023/02/15 04:55:42;;;;;;;;;;;1.70;99.90;;;;;;5066628;28;19912;-60
2023/02/15 04:58:08;;;;;;;;;;;1.70;99.90;;;;;;5065567;28;19919;-60
2023/02/15 05:00:33;;;;;;;;;;;1.70;99.90;;;;;;5068152;28;19912;-63
2023/02/15 05:02:58;;;;;;;;;;;1.70;99.90;;;;;;5063387;28;19912;-60
2023/02/15 05:05:24;;;;;;;;;;;1.60;99.90;;;;;;5063379;28;19921;-64
2023/02/15 05:07:49;;;;;;;;;;;1.70;99.90;;;;;;5063888;28;19920;-62
2023/02/15 05:10:15;;;;;;;;;;;1.70;99.90;;;;;;5063524;28;19927;-62
2023/02/15 05:12:40;;;;;;;;;;;1.70;99.90;;;;;;5066605;28;19912;-60
2023/02/15 05:15:06;;;;;;;;;;;1.70;99.90;;;;;;5060393;28;20014;-63
2023/02/15 05:17:31;;;;;;;;;;;1.60;99.90;;;;;;5063342;28;19920;-63
2023/02/15 05:19:57;;;;;;;;;;;1.70;99.90;;;;;;5064747;28;19912;-61
2023/02/15 05:22:22;;;;;;;;;;;1.60;99.90;;;;;;5061710;28;19979;-63
2023/02/15 05:30:16;;;;;;;;;;;1.50;99.90;;;;;;5067851;28;19967;-63
2023/02/15 05:32:41;;;;;;;;;;;1.60;99.90;;;;;;5063696;28;19924;-63
2023/02/15 05:35:07;;;;;;;;;;;1.60;99.90;;;;;;5066110;28;19929;-62
2023/02/15 05:37:33;;;;;;;;;;;1.60;99.90;;;;;;5061939;28;19948;-60
2023/02/15 05:39:58;;;;;;;;;;;1.60;99.90;;;;;;5066901;28;19912;-62
2023/02/15 05:42:24;;;;;;;;;;;1.50;99.90;;;;;;5062586;28;19913;-62
2023/02/15 05:44:49;;;;;;;;;;;1.60;99.90;;;;;;5064821;28;20420;-63
2023/02/15 05:47:15;;;;;;;;;;;1.60;99.90;;;;;;5067434;28;19951;-60
2023/02/15 05:49:40;;;;;;;;;;;1.60;99.90;;;;;;5069784;28;19928;-62
2023/02/15 05:52:06;;;;;;;;;;;1.70;99.90;;;;;;5067794;28;20010;-63
2023/02/15 05:54:31;;;;;;;;;;;1.60;99.90;;;;;;5068046;28;19967;-60
2023/02/15 05:56:57;;;;;;;;;;;1.60;99.90;;;;;;5070879;28;19995;-62
2023/02/15 05:59:22;;;;;;;;;;;1.60;99.90;;;;;;5068649;28;19916;-63
2023/02/15 06:01:47;;;;;;;;;;;1.60;99.90;;;;;;5068973;28;19927;-61
2023/02/15 06:04:13;;;;;;;;;;;1.60;99.90;;;;;;5068536;28;19916;-63
2023/02/15 06:06:38;;;;;;;;;;;1.60;99.90;;;;;;5069817;28;19913;-62
2023/02/15 06:09:04;;;;;;;;;;;1.60;99.90;;;;;;5068124;28;19927;-61
2023/02/15 06:11:29;;;;;;;;;;;1.60;99.90;;;;;;5068462;28;20003;-59
2023/02/15 06:13:55;;;;;;;;;;;1.60;99.90;;;;;;5068619;28;19998;-62
2023/02/15 06:16:20;;;;;;;;;;;1.60;99.90;;;;;;5068250;28;20282;-60
2023/02/15 06:18:46;;;;;;;;;;;1.50;99.90;;;;;;5070070;28;19916;-58
2023/02/15 06:21:11;;;;;;;;;;;1.60;99.90;;;;;;5066261;28;20320;-62
2023/02/15 06:23:37;;;;;;;;;;;1.60;99.90;;;;;;5067255;28;19917;-60
2023/02/15 06:26:03;;;;;;;;;;;1.50;99.90;;;;;;5065950;28;19956;-62
2023/02/15 06:28:28;;;;;;;;;;;1.50;99.90;;;;;;5070013;28;19913;-59
2023/02/15 06:30:54;;;;;;;;;;;1.60;99.90;;;;;;5063152;28;19912;-63
2023/02/15 06:33:19;;;;;;;;;;;1.60;99.90;;;;;;5066555;28;20562;-62
2023/02/15 06:35:45;;;;;;;;;;;1.50;99.90;;;;;;5065774;28;19920;-59
2023/02/15 06:38:11;;;;;;;;;;;1.50;99.90;;;;;;5070619;28;19920;-60
2023/02/15 06:40:36;;;;;;;;;;;1.50;99.90;;;;;;5067678;28;19913;-62
2023/02/15 06:43:02;;;;;;;;;;;1.50;99.90;;;;;;5070203;28;19913;-60
2023/02/15 06:45:27;;;;;;;;;;;1.50;99.90;;;;;;5070344;28;19950;-60
2023/02/15 06:47:53;;;;;;;;;;;1.60;99.90;;;;;;5070198;28;19912;-62
2023/02/15 06:50:18;;;;;;;;;;;1.60;99.90;;;;;;5070510;28;19931;-61
2023/02/15 06:52:44;;;;;;;;;;;1.50;99.90;;;;;;5072025;28;20270;-61
2023/02/15 06:55:09;;;;;;;;;;;1.60;99.90;;;;;;5069176;28;20003;-62
2023/02/15 06:57:34;;;;;;;;;;;1.60;99.90;;;;;;5070413;28;19913;-60
2023/02/15 07:00:01;;;;;;;;;;;1.60;99.90;;;;;;5068538;28;19912;-60
2023/02/15 07:02:26;;;;;;;;;;;1.60;99.90;;;;;;5068930;28;19920;-59
2023/02/15 07:04:52;;;;;;;;;;;1.60;99.90;;;;;;5068435;28;20392;-63
2023/02/15 07:07:17;;;;;;;;;;;1.70;99.90;;;;;;5067012;28;20370;-60
2023/02/15 07:09:42;;;;;;;;;;;1.60;99.90;;;;;;5070200;28;20374;-60
2023/02/15 07:14:53;;;;;;;;;;;1.50;99.90;;;;;;5070829;28;19927;-61
2023/02/15 07:17:18;;;;;;;;;;;1.60;99.90;;;;;;5069836;28;19912;-61
2023/02/15 07:19:44;;;;;;;;;;;1.60;99.90;;;;;;5067748;28;20010;-60
2023/02/15 07:22:09;;;;;;;;;;;1.70;99.90;;;;;;5068197;28;20419;-60
2023/02/15 07:24:35;;;;;;;;;;;1.70;99.90;;;;;;5069731;28;19963;-64
2023/02/15 07:27:00;;;;;;;;;;;1.70;99.90;;;;;;5069361;28;19916;-63
2023/02/15 07:29:26;;;;;;;;;;;1.70;99.90;;;;;;5062376;28;19912;-64
2023/02/15 07:31:51;;;;;;;;;;;1.70;99.90;;;;;;5060911;28;19913;-63
2023/02/15 07:34:17;;;;;;;;;;;1.70;99.90;;;;;;5062179;28;19962;-62
2023/02/15 07:36:44;;;;;;;;;;;1.80;99.90;;;;;;5059053;28;19947;-62
2023/02/15 07:39:10;;;;;;;;;;;1.80;99.90;;;;;;5070909;28;20453;-60
2023/02/15 07:41:35;;;;;;;;;;;1.80;99.90;;;;;;5068110;28;19999;-60
2023/02/15 07:44:00;;;;;;;;;;;1.90;99.90;;;;;;5071271;28;19962;-61
2023/02/15 07:46:26;;;;;;;;;;;1.90;99.90;;;;;;5065753;28;19999;-63
2023/02/15 07:48:51;;;;;;;;;;;1.90;99.90;;;;;;5061439;28;19924;-62
2023/02/15 07:51:17;;;;;;;;;;;1.90;99.90;;;;;;5065993;28;19912;-61
2023/02/15 07:53:42;;;;;;;;;;;2.00;99.90;;;;;;5064953;28;19916;-63
2023/02/15 07:56:12;;;;;;;;;;;2.00;99.90;;;;;;5071289;28;19944;-61
2023/02/15 07:58:52;;;;;;;;;;;2.00;99.90;;;;;;5071951;28;19912;-60
2023/02/15 08:01:26;;;;;;;;;;;2.20;99.90;;;;;;5071611;28;19944;-61
2023/02/15 08:03:52;;;;;;;;;;;2.10;99.90;;;;;;5069005;28;19916;-64
2023/02/15 08:06:17;;;;;;;;;;;2.20;99.90;;;;;;5071161;28;20003;-62
2023/02/15 08:08:43;;;;;;;;;;;2.20;99.90;;;;;;5070424;28;19999;-61
2023/02/15 08:11:32;;;;;;;;;;;2.30;99.90;;;;;;5066665;28;19916;-61
2023/02/15 08:14:03;;;;;;;;;;;2.30;99.90;;;;;;5063409;28;19916;-62
2023/02/15 08:16:36;;;;;;;;;;;2.40;99.90;;;;;;5067222;28;20023;-62
2023/02/15 08:19:04;;;;;;;;;;;2.50;99.90;;;;;;5067371;28;19923;-62
2023/02/15 08:21:30;;;;;;;;;;;2.50;99.90;;;;;;5062823;28;19924;-62
2023/02/15 08:23:56;;;;;;;;;;;2.50;99.90;;;;;;5069738;28;19916;-61
2023/02/15 08:26:22;;;;;;;;;;;2.60;99.90;;;;;;5071098;28;20378;-62
2023/02/15 08:28:48;;;;;;;;;;;2.60;99.90;;;;;;5052888;28;20386;-62
2023/02/15 08:31:14;;;;;;;;;;;2.60;99.90;;;;;;5068783;28;19928;-61
2023/02/15 08:33:40;;;;;;;;;;;2.70;99.90;;;;;;5065031;28;19913;-61
2023/02/15 08:36:07;;;;;;;;;;;2.80;99.90;;;;;;5069132;28;19913;-61
2023/02/15 08:38:33;;;;;;;;;;;2.80;99.90;;;;;;5069197;28;19912;-62
2023/02/15 08:41:08;;;;;;;;;;;2.80;99.90;;;;;;5062440;28;19920;-62
2023/02/15 08:43:33;;;;;;;;;;;2.90;99.90;;;;;;5068967;28;19908;-62
2023/02/15 08:45:59;;;;;;;;;;;3.00;99.90;;;;;;5070114;28;20007;-61
2023/02/15 08:48:24;;;;;;;;;;;3.10;99.90;;;;;;5069635;28;19913;-61
2023/02/15 08:50:50;;;;;;;;;;;3.20;99.90;;;;;;5074408;28;19986;-62
2023/02/15 08:53:15;;;;;;;;;;;3.20;99.90;;;;;;5074301;28;19944;-61
2023/02/15 08:55:41;;;;;;;;;;;3.30;99.90;;;;;;5067237;28;19916;-62
2023/02/15 08:58:06;;;;;;;;;;;3.30;99.90;;;;;;5071108;28;19923;-61
2023/02/15 09:00:32;;;;;;;;;;;3.40;99.90;;;;;;5070456;28;20027;-61
2023/02/15 09:02:57;;;;;;;;;;;3.50;99.90;;;;;;5075003;28;19914;-60
2023/02/15 09:05:23;;;;;;;;;;;3.60;99.90;;;;;;5075100;28;19918;-61
2023/02/15 09:07:49;;;;;;;;;;;3.70;99.90;;;;;;5074560;28;20389;-62
2023/02/15 09:10:15;;;;;;;;;;;3.70;99.90;;;;;;5075348;28;19909;-62
2023/02/15 09:12:40;;;;;;;;;;;3.80;99.90;;;;;;5056028;28;19913;-61
2023/02/15 09:15:06;;;;;;;;;;;3.90;99.90;;;;;;5074030;28;19955;-62
2023/02/15 09:17:31;;;;;;;;;;;4.00;99.90;;;;;;5074422;28;19912;-62
2023/02/15 09:19:57;;;;;;;;;;;4.10;99.90;;;;;;5072712;28;20361;-61
2023/02/15 09:22:22;;;;;;;;;;;4.20;99.90;;;;;;5074690;28;19913;-62
2023/02/15 09:24:47;;;;;;;;;;;4.30;99.90;;;;;;5094912;22;19933;-53
2023/02/15 09:27:13;;;;;;;;;;;4.40;99.90;;;;;;5060009;28;19913;-53
2023/02/15 09:29:38;;;;;;;;;;;4.50;99.90;;;;;;5061123;28;19995;-55
2023/02/15 09:32:04;;;;;;;;;;;4.60;99.90;;;;;;5066501;28;19913;-58
2023/02/15 09:34:30;;;;;;;;;;;4.80;99.90;;;;;;5089089;28;19966;-58
2023/02/15 09:36:55;;;;;;;;;;;4.90;99.90;;;;;;5088780;28;19931;-56
2023/02/15 09:39:25;;;;;;;;;;;5.00;99.90;;;;;;5091452;28;19912;-57
2023/02/15 09:42:16;;;;;;;;;;;5.20;99.90;;;;;;5089953;28;19916;-56
2023/02/15 09:44:56;;;;;;;;;;;5.30;99.90;;;;;;5087950;28;20589;-57
2023/02/15 09:47:40;;;;;;;;;;;5.50;99.90;;;;;;5078719;28;19923;-56
2023/02/15 09:50:28;;;;;;;;;;;5.60;99.90;;;;;;5088946;28;19973;-55
2023/02/15 09:53:12;;;;;;;;;;;5.80;99.90;;;;;;5084252;28;20377;-58
2023/02/15 09:55:46;;;;;;;;;;;6.00;99.90;;;;;;5087179;28;19916;-56
2023/02/15 09:58:14;;;;;;;;;;;6.10;99.90;;;;;;5091497;28;19912;-58
2023/02/15 10:00:42;;;;;;;;;;;6.20;99.90;;;;;;5086308;28;20402;-56
2023/02/15 10:03:23;;;;;;;;;;;6.40;99.90;;;;;;5090435;28;19982;-56
2023/02/15 10:06:07;;;;;;;;;;;6.60;99.90;;;;;;5089177;28;20493;-55
2023/02/15 10:08:43;;;;;;;;;;;6.70;99.90;;;;;;5086925;28;19923;-58
2023/02/15 10:14:19;;;;;;;;;;;6.90;99.90;;;;;;5087360;28;20023;-54
2023/02/15 10:16:56;;;;;;;;;;;7.00;99.90;;;;;;5087663;28;20002;-59
2023/02/15 10:19:27;;;;;;;;;;;6.90;99.90;;;;;;5071811;28;19947;-59
2023/02/15 10:22:13;;;;;;;;;;;7.00;99.90;;;;;;5088135;28;19966;-58
2023/02/15 10:25:11;;;;;;;;;;;7.10;99.90;;;;;;5082918;28;19916;-58
2023/02/15 10:27:43;;;;;;;;;;;7.20;99.90;;;;;;4999950;28;19912;-58
2023/02/15 10:30:20;;;;;;;;;;;7.40;99.90;;;;;;5080685;28;19999;-58
2023/02/15 10:33:02;;;;;;;;;;;7.50;99.90;;;;;;5089032;28;20420;-56
2023/02/15 10:35:36;;;;;;;;;;;7.60;99.90;;;;;;5083742;28;19916;-59
2023/02/15 10:38:10;;;;;;;;;;;7.70;99.90;;;;;;5085502;28;19912;-59
2023/02/15 10:41:05;;;;;;;;;;;7.90;99.90;;;;;;5085024;28;19924;-58
2023/02/15 10:43:30;;;;;;;;;;;8.10;99.90;;;;;;5069242;28;20233;-60
2023/02/15 10:45:56;;;;;;;;;;;8.10;99.90;;;;;;5082672;28;19916;-57
2023/02/15 10:48:25;;;;;;;;;;;8.20;99.90;;;;;;5082182;28;19916;-58
2023/02/15 10:50:52;;;;;;;;;;;8.30;99.90;;;;;;5082126;28;19967;-54
2023/02/15 10:53:36;;;;;;;;;;;8.40;99.90;;;;;;5083680;28;19956;-58
2023/02/15 10:56:10;;;;;;;;;;;8.40;99.90;;;;;;5084994;28;19920;-58
2023/02/15 10:58:36;;;;;;;;;;;8.40;99.90;;;;;;5086875;28;19951;-59
2023/02/15 11:01:19;;;;;;;;;;;8.40;99.90;;;;;;5085386;28;19955;-57
2023/02/15 11:04:04;;;;;;;;;;;8.40;99.90;;;;;;5080521;28;20294;-58
2023/02/15 11:06:30;;;;;;;;;;;8.60;99.90;;;;;;5084982;28;19920;-59
2023/02/15 11:09:09;;;;;;;;;;;8.80;99.90;;;;;;5088264;28;19916;-59
2023/02/15 11:11:40;;;;;;;;;;;8.90;99.90;;;;;;5084604;28;19916;-57
2023/02/15 11:14:13;;;;;;;;;;;9.00;99.90;;;;;;5079715;28;19916;-56
2023/02/15 11:16:41;;;;;;;;;;;9.20;99.90;;;;;;5087479;28;19999;-59
2023/02/15 11:19:17;;;;;;;;;;;9.30;99.90;;;;;;5090229;28;20013;-58
2023/02/15 11:21:45;;;;;;;;;;;9.30;99.90;;;;;;5083756;28;19997;-59
2023/02/15 11:24:15;;;;;;;;;;;9.40;99.90;;;;;;5089890;28;20400;-58
2023/02/15 11:26:48;;;;;;;;;;;9.60;99.90;;;;;;5085113;28;19920;-58
2023/02/15 11:29:32;;;;;;;;;;;9.60;99.90;;;;;;5090996;28;19927;-58
2023/02/15 11:32:03;;;;;;;;;;;9.80;99.90;;;;;;5092417;28;19908;-59
2023/02/15 11:34:31;;;;;;;;;;;9.90;99.90;;;;;;5085556;28;19909;-56
2023/02/15 11:37:00;;;;;;;;;;;10.00;99.90;;;;;;5091603;28;19922;-58
2023/02/15 11:39:28;;;;;;;;;;;10.20;99.90;;;;;;5092256;28;19908;-56
2023/02/15 11:41:56;;;;;;;;;;;10.20;99.90;;;;;;5085896;28;19912;-58
2023/02/15 11:44:25;;;;;;;;;;;10.40;99.90;;;;;;5091269;28;21808;-59
2023/02/15 11:46:51;;;;;;;;;;;10.50;99.90;;;;;;5091825;28;19960;-57
2023/02/15 11:49:35;;;;;;;;;;;10.70;99.90;;;;;;5074179;28;20372;-59
2023/02/15 11:52:01;;;;;;;;;;;10.80;99.90;;;;;;5089114;28;19935;-58
2023/02/15 11:54:32;;;;;;;;;;;11.10;99.90;;;;;;5092274;28;19926;-58
2023/02/15 11:57:02;;;;;;;;;;;11.00;99.90;;;;;;5089851;28;19912;-58
2023/02/15 11:59:31;;;;;;;;;;;11.40;99.90;;;;;;5090742;28;19912;-58
2023/02/15 12:01:56;;;;;;;;;;;11.30;99.90;;;;;;5089128;28;19993;-59
2023/02/15 12:04:30;;;;;;;;;;;11.40;99.90;;;;;;5085530;28;19909;-56
2023/02/15 12:06:55;;;;;;;;;;;11.70;99.90;;;;;;5088734;28;19916;-55
2023/02/15 12:09:24;;;;;;;;;;;11.70;99.90;;;;;;5091044;28;19908;-58
2023/02/15 12:11:49;;;;;;;;;;;12.00;99.90;;;;;;5072890;28;19935;-56
2023/02/15 12:14:15;;;;;;;;;;;12.20;99.90;;;;;;5090196;28;19962;-57
2023/02/15 12:16:51;;;;;;;;;;;12.30;99.90;;;;;;5091431;28;20430;-58
2023/02/15 12:19:20;;;;;;;;;;;12.30;99.90;;;;;;5090528;28;19955;-59
2023/02/15 12:21:48;;;;;;;;;;;12.40;99.90;;;;;;5091512;28;19915;-59
2023/02/15 12:24:18;;;;;;;;;;;12.60;99.90;;;;;;5090569;28;19908;-59
2023/02/15 12:26:44;;;;;;;;;;;12.80;99.90;;;;;;5091181;28;19912;-58
2023/02/15 12:29:16;;;;;;;;;;;12.90;99.90;;;;;;5090010;28;19935;-58
2023/02/15 12:31:43;;;;;;;;;;;13.00;99.90;;;;;;5083135;28;19909;-56
2023/02/15 12:34:12;;;;;;;;;;;13.10;99.90;;;;;;5085311;28;19966;-60
2023/02/15 12:36:44;;;;;;;;;;;13.20;99.90;;;;;;5090780;28;19912;-57
2023/02/15 12:39:17;;;;;;;;;;;13.50;99.90;;;;;;5080269;28;20452;-59
2023/02/15 12:41:56;;;;;;;;;;;13.60;99.90;;;;;;5084798;28;19963;-57
2023/02/15 12:44:25;;;;;;;;;;;13.60;99.90;;;;;;5076605;28;19918;-56
2023/02/15 12:46:57;;;;;;;;;;;13.80;99.90;;;;;;5072911;28;19969;-56
2023/02/15 12:49:23;;;;;;;;;;;13.50;99.90;;;;;;5082056;28;21475;-56
2023/02/15 12:51:52;;;;;;;;;;;13.90;99.90;;;;;;5084863;28;19927;-57
2023/02/15 12:54:24;;;;;;;;;;;13.70;99.90;;;;;;5079961;28;19912;-57
2023/02/15 12:56:50;;;;;;;;;;;13.90;99.90;;;;;;5080368;28;19962;-57
2023/02/15 12:59:22;;;;;;;;;;;13.90;99.90;;;;;;5085374;28;19947;-56
2023/02/15 13:01:47;;;;;;;;;;;14.10;99.90;;;;;;5080807;28;19923;-57
2023/02/15 13:04:33;;;;;;;;;;;14.10;99.90;;;;;;5082583;28;19920;-58
2023/02/15 13:07:01;;;;;;;;;;;14.20;99.90;;;;;;5082887;28;20003;-56
2023/02/15 13:09:32;;;;;;;;;;;14.10;99.90;;;;;;5087780;28;20389;-57
2023/02/15 13:12:13;;;;;;;;;;;14.10;99.90;;;;;;5079125;28;19918;-60
2023/02/15 13:14:42;;;;;;;;;;;14.50;99.90;;;;;;5083701;28;19959;-57
2023/02/15 13:17:09;;;;;;;;;;;14.30;99.90;;;;;;5086707;28;19951;-58
2023/02/15 13:19:42;;;;;;;;;;;14.50;99.90;;;;;;5082097;28;20002;-57
2023/02/15 13:22:12;;;;;;;;;;;14.70;99.90;;;;;;5087024;28;20357;-56
2023/02/15 13:24:43;;;;;;;;;;;14.50;99.90;;;;;;5085616;28;20382;-55
2023/02/15 13:27:12;;;;;;;;;;;14.40;99.90;;;;;;5072724;28;19970;-56
2023/02/15 13:29:39;;;;;;;;;;;14.60;99.90;;;;;;5074008;28;19912;-57
2023/02/15 13:32:12;;;;;;;;;;;15.00;99.90;;;;;;5082611;28;20385;-58
2023/02/15 13:34:38;;;;;;;;;;;14.60;99.90;;;;;;5081512;28;19954;-56
2023/02/15 13:37:16;;;;;;;;;;;14.70;99.90;;;;;;5081222;28;19981;-57
2023/02/15 13:39:41;;;;;;;;;;;14.70;99.90;;;;;;5081879;28;19939;-57
2023/02/15 13:42:07;;;;;;;;;;;14.90;99.90;;;;;;5086976;28;20389;-55
2023/02/15 13:44:51;;;;;;;;;;;15.00;99.90;;;;;;5084423;28;20060;-57
2023/02/15 13:47:37;;;;;;;;;;;15.20;99.90;;;;;;5082077;28;20023;-58
2023/02/15 13:50:05;;;;;;;;;;;15.10;99.90;;;;;;5091040;28;19913;-56
2023/02/15 13:52:37;;;;;;;;;;;15.40;99.90;;;;;;5080167;28;20358;-57
2023/02/15 13:55:08;;;;;;;;;;;15.20;99.90;;;;;;5080368;28;20508;-58
2023/02/15 14:03:14;;;;;;;;;;;15.20;99.90;;;;;;5065930;28;19950;-80
2023/02/15 14:05:50;;;;;;;;;;;14.80;99.90;;;;;;5063902;28;19924;-81
2023/02/15 14:08:34;;;;;;;;;;;14.80;99.90;;;;;;5071969;28;19928;-81
2023/02/15 14:11:18;;;;;;;;;;;15.10;99.90;;;;;;5074845;28;19916;-80
2023/02/15 14:14:16;;;;;;;;;;;14.90;99.90;;;;;;5058231;28;19913;-80
2023/02/15 14:16:54;;;;;;;;;;;15.00;99.90;;;;;;5047611;28;19913;-80
2023/02/15 14:19:33;;;;;;;;;;;14.90;99.90;;;;;;5063517;28;19912;-82
2023/02/15 14:22:02;;;;;;;;;;;14.90;99.90;;;;;;5072387;28;19967;-81
2023/02/15 14:24:43;;;;;;;;;;;14.90;99.90;;;;;;5067010;28;20254;-82
2023/02/15 14:27:17;;;;;;;;;;;15.00;99.90;;;;;;5057239;28;19913;-80
2023/02/15 14:29:46;;;;;;;;;;;14.70;99.90;;;;;;5072645;28;19909;-81
2023/02/15 14:32:25;;;;;;;;;;;14.50;99.90;;;;;;5066612;28;19959;-81
2023/02/15 14:34:55;;;;;;;;;;;14.40;99.90;;;;;;5073791;28;19967;-81
2023/02/15 14:37:27;;;;;;;;;;;14.10;99.90;;;;;;5073088;28;20429;-80
2023/02/15 14:43:11;;;;;;;;;;;14.00;99.90;;;;;;5069929;28;19935;-83
2023/02/15 14:46:06;;;;;;;;;;;14.00;99.90;;;;;;5067071;28;20024;-82
2023/02/15 14:48:36;;;;;;;;;;;13.80;99.90;;;;;;4988950;28;19996;-81
2023/02/15 14:51:01;;;;;;;;;;;13.60;99.90;;;;;;5073713;28;19913;-82
2023/02/15 14:53:38;;;;;;;;;;;13.60;99.90;;;;;;5052480;28;19964;-84
2023/02/15 14:56:10;;;;;;;;;;;13.60;99.90;;;;;;5069844;28;20274;-86
2023/02/15 14:58:35;;;;;;;;;;;13.30;99.90;;;;;;5050269;28;19916;-82
2023/02/15 15:01:08;;;;;;;;;;;13.30;99.90;;;;;;5070365;28;19924;-82
2023/02/15 15:03:35;;;;;;;;;;;13.20;99.90;;;;;;5068618;28;19943;-82
2023/02/15 15:06:02;;;;;;;;;;;13.10;99.90;;;;;;5070771;28;19991;-87
2023/02/15 15:08:31;;;;;;;;;;;12.90;99.90;;;;;;5042102;28;19913;-87
2023/02/15 15:11:26;;;;;;;;;;;13.00;99.90;;;;;;5055507;28;19943;-82
2023/02/15 15:13:53;;;;;;;;;;;12.90;99.90;;;;;;5064638;28;19912;-83
2023/02/15 15:16:34;;;;;;;;;;;12.80;99.90;;;;;;5061973;28;19920;-83
2023/02/15 15:19:00;;;;;;;;;;;12.70;99.90;;;;;;5059535;28;19908;-80
2023/02/15 15:21:44;;;;;;;;;;;12.70;99.90;;;;;;5078207;28;19913;-82